Bushes, Louisiana
Current Conditions -  °F | °C
As of 3:53 PM on Thursday 23 Oct 2014 (Local Time) from KMLU Reporting Station
Clear Clear  
Wind Chill: 63°   Ceiling: Unl
Heat Index: 63°   Visibility: 10mi
Dew Point: 51°   Wind: 9mph
Humidity: 65%   Direction: 360°N
Pressure: 30.12"   Gusts: NA
Location:  32.1434°N, 91.7026°W
Report Text: KMLU 232053Z 36008KT 10SM CLR 17/11 A3012 RMK AO2 SLPNO T01720106 56021
Loading
Personal Weather Stations






























Interactive Weather Map
Tropical Storm Tracking
New forecast layout! Learn more

10-Day Weather Forecast

Advertisements
Track Severe Weather on mobile